Time;durP1;ratioP1;P1;durP2;ratioP2;P2;SDS_P1;SDS_P2;PMS_P1;PMS_P2;Temp;Humidity;BMP_temperature;BMP_pressure;BME280_temperature;BME280_humidity;BME280_pressure;Samples;Min_cycle;Max_cycle;Signal;HPM_P1;HPM_P2
2023/05/19 00:00:14;;;;;;;;;;;;;;;21.73;32.90;97638.00;5076540;28;997;-74
2023/05/19 00:02:40;;;;;;;;;;;;;;;21.80;32.84;97637.75;5059513;28;989;-74
2023/05/19 00:05:06;;;;;;;;;;;;;;;21.79;32.77;97636.16;5059498;28;1006;-74
2023/05/19 00:07:31;;;;;;;;;;;;;;;21.77;32.60;97641.50;5059760;28;2249;-74
2023/05/19 00:09:57;;;;;;;;;;;;;;;21.61;32.87;97635.97;5059685;28;991;-75
2023/05/19 00:12:22;;;;;;;;;;;;;;;21.68;32.58;97632.91;5043389;28;998;-74
2023/05/19 00:14:48;;;;;;;;;;;;;;;21.75;32.57;97638.31;5059156;28;1049;-75
2023/05/19 00:17:15;;;;;;;;;;;;;;;21.67;32.40;97628.50;5019339;28;1003;-75
2023/05/19 00:19:41;;;;;;;;;;;;;;;21.65;32.50;97630.19;5036012;28;995;-75
2023/05/19 00:22:08;;;;;;;;;;;;;;;21.71;32.18;97639.69;5036386;28;975;-74
2023/05/19 00:24:33;;;;;;;;;;;;;;;21.92;31.76;97643.88;5036384;28;993;-75
2023/05/19 00:26:59;;;;;;;;;;;;;;;22.03;31.59;97647.13;5051641;28;1903;-75
2023/05/19 00:29:25;;;;;;;;;;;;;;;21.79;31.77;97646.72;5039854;28;1031;-74
2023/05/19 00:31:51;;;;;;;;;;;;;;;21.62;32.23;97648.88;5072816;28;968;-75
2023/05/19 00:34:16;;;;;;;;;;;;;;;21.89;32.72;97650.44;5072682;28;996;-74
2023/05/19 00:36:42;;;;;;;;;;;;;;;22.46;32.68;97657.78;5039283;28;1070;-74
2023/05/19 00:39:07;;;;;;;;;;;;;;;22.56;32.85;97653.00;5055819;28;1003;-75
2023/05/19 00:41:33;;;;;;;;;;;;;;;22.65;33.28;97649.44;5039270;28;1153;-74
2023/05/19 00:43:59;;;;;;;;;;;;;;;22.66;33.60;97651.03;5072668;28;1278;-74
2023/05/19 00:46:25;;;;;;;;;;;;;;;22.26;33.53;97645.97;5055822;28;1242;-74
2023/05/19 00:48:50;;;;;;;;;;;;;;;21.70;34.27;97650.22;5072388;28;1946;-74
2023/05/19 00:51:16;;;;;;;;;;;;;;;21.78;33.47;97651.59;5055876;28;1306;-74
2023/05/19 00:53:42;;;;;;;;;;;;;;;21.97;33.12;97654.63;5058186;28;1025;-75
2023/05/19 00:56:08;;;;;;;;;;;;;;;22.01;32.76;97655.28;5060779;28;1026;-75
2023/05/19 00:58:33;;;;;;;;;;;;;;;21.79;33.18;97653.16;5076707;28;1012;-74
2023/05/19 01:01:02;;;;;;;;;;;;;;;21.70;33.04;97655.88;5060091;28;1178;-75
2023/05/19 01:03:30;;;;;;;;;;;;;;;21.74;33.22;97658.59;5076555;28;868;-74
2023/05/19 01:05:56;;;;;;;;;;;;;;;21.61;33.26;97652.97;5076700;28;1130;-75
2023/05/19 01:08:22;;;;;;;;;;;;;;;21.81;32.64;97658.34;5059959;28;1914;-75
2023/05/19 01:10:47;;;;;;;;;;;;;;;21.74;32.69;97650.91;5038638;28;1086;-75
2023/05/19 01:13:13;;;;;;;;;;;;;;;21.94;32.39;97661.19;5072196;28;970;-74
2023/05/19 01:15:54;;;;;;;;;;;;;;;21.93;32.44;97656.78;5038251;28;1188;-74
2023/05/19 01:18:22;;;;;;;;;;;;;;;21.68;32.99;97657.59;5071861;28;1077;-75
2023/05/19 01:20:51;;;;;;;;;;;;;;;21.64;32.75;97659.75;5071746;28;1173;-74
2023/05/19 01:23:22;;;;;;;;;;;;;;;22.03;31.95;97661.28;5055321;28;1556;-75
2023/05/19 01:25:54;;;;;;;;;;;;;;;21.84;32.07;97661.09;5055019;28;1029;-75
2023/05/19 01:28:26;;;;;;;;;;;;;;;22.09;31.79;97665.91;5055125;28;1926;-74
2023/05/19 01:30:52;;;;;;;;;;;;;;;22.05;31.68;97653.13;5054846;28;1018;-75
2023/05/19 01:33:17;;;;;;;;;;;;;;;21.55;32.73;97654.75;5038326;28;1110;-75
2023/05/19 01:35:43;;;;;;;;;;;;;;;22.34;32.35;97664.31;5054971;28;1066;-75
2023/05/19 01:38:09;;;;;;;;;;;;;;;22.73;32.31;97657.22;5055190;28;1093;-75
2023/05/19 01:40:34;;;;;;;;;;;;;;;22.68;33.25;97657.81;5038414;28;952;-75
2023/05/19 01:43:00;;;;;;;;;;;;;;;22.61;33.76;97666.59;5054475;28;1300;-75
2023/05/19 01:45:26;;;;;;;;;;;;;;;22.20;34.01;97665.59;5037935;28;1027;-74
2023/05/19 01:47:53;;;;;;;;;;;;;;;21.92;34.00;97663.69;5035423;28;1914;-75
2023/05/19 01:50:19;;;;;;;;;;;;;;;21.99;33.43;97660.63;5078138;28;1129;-75
2023/05/19 01:52:44;;;;;;;;;;;;;;;21.88;33.33;97660.19;5061325;28;1123;-74
2023/05/19 01:55:10;;;;;;;;;;;;;;;21.62;34.08;97657.38;5077845;28;1135;-74
2023/05/19 01:57:42;;;;;;;;;;;;;;;21.61;33.83;97663.50;5077827;28;1018;-74
2023/05/19 02:00:08;;;;;;;;;;;;;;;21.89;33.12;97661.75;5060971;28;1205;-74
2023/05/19 02:02:43;;;;;;;;;;;;;;;21.98;33.00;97670.38;5094425;28;999;-75
2023/05/19 02:05:13;;;;;;;;;;;;;;;21.77;33.10;97669.81;5061939;28;988;-75
2023/05/19 02:07:58;;;;;;;;;;;;;;;21.85;33.04;97674.00;5061016;28;1989;-75
2023/05/19 02:10:26;;;;;;;;;;;;;;;21.79;33.07;97681.47;5077627;28;968;-75
2023/05/19 02:12:52;;;;;;;;;;;;;;;21.88;32.81;97677.19;5077309;28;974;-74
2023/05/19 02:15:23;;;;;;;;;;;;;;;21.89;32.83;97675.94;5059964;28;1719;-75
2023/05/19 02:17:50;;;;;;;;;;;;;;;21.75;32.78;97677.97;5061015;28;1145;-75
2023/05/19 02:20:16;;;;;;;;;;;;;;;21.39;33.68;97680.34;5041624;28;1197;-74
2023/05/19 02:22:41;;;;;;;;;;;;;;;21.78;32.77;97679.91;5057562;28;1587;-74
2023/05/19 02:25:07;;;;;;;;;;;;;;;21.71;32.88;97691.47;5057422;28;1054;-74
2023/05/19 02:27:33;;;;;;;;;;;;;;;21.73;32.89;97688.19;5057077;28;1894;-75
2023/05/19 02:30:02;;;;;;;;;;;;;;;21.62;32.80;97685.69;5057252;28;970;-75
2023/05/19 02:32:27;;;;;;;;;;;;;;;21.62;33.05;97694.19;5014075;28;1260;-75
2023/05/19 02:34:55;;;;;;;;;;;;;;;21.78;32.42;97690.44;5013760;28;929;-75
2023/05/19 02:37:22;;;;;;;;;;;;;;;21.99;32.02;97695.41;5013782;28;1124;-74
2023/05/19 02:39:48;;;;;;;;;;;;;;;21.79;32.29;97692.81;5014137;28;1126;-75
2023/05/19 02:42:16;;;;;;;;;;;;;;;22.27;32.66;97688.00;5013800;28;1095;-74
2023/05/19 02:44:42;;;;;;;;;;;;;;;22.52;33.19;97700.53;4981837;28;1473;-75
2023/05/19 02:47:07;;;;;;;;;;;;;;;22.46;33.75;97699.53;5013936;28;1988;-74
2023/05/19 02:49:36;;;;;;;;;;;;;;;22.93;33.47;97705.16;5013850;28;986;-75
2023/05/19 02:52:02;;;;;;;;;;;;;;;22.13;34.08;97707.56;5013956;28;1171;-75
2023/05/19 02:54:28;;;;;;;;;;;;;;;22.00;33.89;97701.84;5013907;28;1281;-74
2023/05/19 02:56:54;;;;;;;;;;;;;;;21.70;34.02;97706.84;4997459;28;1253;-75
2023/05/19 02:59:19;;;;;;;;;;;;;;;21.91;33.20;97705.38;5000758;28;1122;-74
2023/05/19 03:01:46;;;;;;;;;;;;;;;22.00;33.08;97707.53;5033197;28;1259;-75
2023/05/19 03:04:12;;;;;;;;;;;;;;;22.10;32.63;97710.03;5016856;28;1217;-75
2023/05/19 03:06:38;;;;;;;;;;;;;;;21.91;32.77;97711.03;5017009;28;1922;-74
2023/05/19 03:09:04;;;;;;;;;;;;;;;21.74;33.08;97713.19;5033182;28;890;-75
2023/05/19 03:11:30;;;;;;;;;;;;;;;21.75;33.18;97703.44;5033483;28;1099;-74
2023/05/19 03:13:55;;;;;;;;;;;;;;;21.90;32.86;97711.50;5047433;28;1293;-75
2023/05/19 03:16:21;;;;;;;;;;;;;;;22.04;32.59;97708.22;5045116;28;1228;-74
2023/05/19 03:18:46;;;;;;;;;;;;;;;21.74;33.05;97712.41;5053079;28;1257;-75
2023/05/19 03:21:12;;;;;;;;;;;;;;;21.52;33.24;97727.25;5039458;28;1532;-75
2023/05/19 03:23:37;;;;;;;;;;;;;;;21.80;32.70;97717.03;5061930;28;1280;-75
2023/05/19 03:26:03;;;;;;;;;;;;;;;21.79;32.53;97721.13;5050908;28;1205;-75
2023/05/19 03:28:29;;;;;;;;;;;;;;;21.71;32.48;97725.44;5051744;28;1977;-75
2023/05/19 03:30:55;;;;;;;;;;;;;;;21.86;32.29;97731.44;5043176;28;1276;-74
2023/05/19 03:33:26;;;;;;;;;;;;;;;21.91;32.28;97732.91;5060610;28;1184;-74
2023/05/19 03:35:52;;;;;;;;;;;;;;;21.85;32.44;97729.84;5060406;28;1391;-75
2023/05/19 03:38:18;;;;;;;;;;;;;;;21.57;32.61;97749.31;5060417;28;1187;-74
2023/05/19 03:40:55;;;;;;;;;;;;;;;21.89;32.14;97749.56;5045079;28;1301;-75
2023/05/19 03:43:21;;;;;;;;;;;;;;;22.15;31.50;97742.66;5060279;28;1286;-75
2023/05/19 03:45:52;;;;;;;;;;;;;;;22.08;31.72;97745.72;5062094;28;1260;-74
2023/05/19 03:48:36;;;;;;;;;;;;;;;21.57;32.59;97754.19;5078162;28;1961;-75
2023/05/19 03:51:27;;;;;;;;;;;;;;;21.71;32.27;97748.09;5076548;28;1148;-75
2023/05/19 03:53:56;;;;;;;;;;;;;;;21.80;32.02;97751.03;5060114;28;1574;-75
2023/05/19 03:56:23;;;;;;;;;;;;;;;22.15;32.95;97748.34;5060399;28;1117;-75
2023/05/19 03:58:49;;;;;;;;;;;;;;;22.27;33.61;97741.84;5060519;28;1104;-75
2023/05/19 04:01:14;;;;;;;;;;;;;;;22.35;34.00;97746.03;5060177;28;1288;-74
2023/05/19 04:03:40;;;;;;;;;;;;;;;22.38;34.15;97743.53;5060071;28;954;-74
2023/05/19 04:06:06;;;;;;;;;;;;;;;22.01;34.29;97743.09;5060112;28;1439;-75
2023/05/19 04:08:32;;;;;;;;;;;;;;;21.84;33.99;97739.59;5059808;28;1910;-75
2023/05/19 04:10:58;;;;;;;;;;;;;;;21.81;33.88;97741.31;5040011;28;1117;-75
2023/05/19 04:13:23;;;;;;;;;;;;;;;21.60;34.03;97753.28;5023210;28;1261;-74
2023/05/19 04:15:50;;;;;;;;;;;;;;;21.92;33.05;97745.84;4996700;28;1592;-75
2023/05/19 04:18:15;;;;;;;;;;;;;;;21.97;33.02;97748.09;4964699;28;1412;-75
2023/05/19 04:20:41;;;;;;;;;;;;;;;21.94;32.85;97749.00;4964756;28;1080;-76
2023/05/19 04:23:07;;;;;;;;;;;;;;;21.87;32.66;97755.69;4964639;28;1435;-75
2023/05/19 04:25:34;;;;;;;;;;;;;;;21.65;33.33;97754.75;4964690;28;1116;-74
2023/05/19 04:28:01;;;;;;;;;;;;;;;21.71;33.09;97756.59;4980528;28;1903;-75
2023/05/19 04:30:28;;;;;;;;;;;;;;;21.77;32.93;97751.16;4964825;28;1154;-74
2023/05/19 04:32:54;;;;;;;;;;;;;;;21.45;33.14;97752.13;4980477;28;1282;-76
2023/05/19 04:35:21;;;;;;;;;;;;;;;21.78;32.25;97759.19;4980687;28;1036;-74
2023/05/19 04:37:47;;;;;;;;;;;;;;;21.78;32.28;97759.19;4996135;28;1309;-74
2023/05/19 04:40:16;;;;;;;;;;;;;;;21.43;33.16;97763.91;4980464;28;1474;-74
2023/05/19 04:42:44;;;;;;;;;;;;;;;21.75;32.51;97764.97;5012096;28;1299;-74
2023/05/19 04:45:12;;;;;;;;;;;;;;;21.93;31.97;97764.41;5019550;28;1140;-75
2023/05/19 04:47:41;;;;;;;;;;;;;;;21.73;32.24;97770.28;5052672;28;1985;-74
2023/05/19 04:50:08;;;;;;;;;;;;;;;22.36;32.25;97775.19;5078848;28;942;-75
2023/05/19 04:52:34;;;;;;;;;;;;;;;22.92;31.92;97768.03;5060116;28;1307;-75
2023/05/19 04:55:01;;;;;;;;;;;;;;;22.67;33.17;97781.00;5060641;28;1260;-75
2023/05/19 04:57:27;;;;;;;;;;;;;;;22.79;33.28;97780.19;5093858;28;1207;-75
2023/05/19 04:59:58;;;;;;;;;;;;;;;22.20;33.63;97778.94;5076835;28;1136;-75
2023/05/19 05:02:26;;;;;;;;;;;;;;;21.93;33.87;97787.09;5076776;28;1292;-75
2023/05/19 05:04:53;;;;;;;;;;;;;;;21.90;33.69;97790.81;5093625;28;1123;-75
2023/05/19 05:07:20;;;;;;;;;;;;;;;21.88;33.20;97796.16;5098748;28;1923;-74
2023/05/19 05:09:47;;;;;;;;;;;;;;;21.67;33.57;97792.72;5081980;28;1792;-75
2023/05/19 05:12:13;;;;;;;;;;;;;;;21.75;33.26;97793.28;5099280;28;985;-75
2023/05/19 05:14:39;;;;;;;;;;;;;;;21.95;32.96;97795.91;5098739;28;1297;-75
2023/05/19 05:17:06;;;;;;;;;;;;;;;21.73;33.08;97796.56;5065584;28;1147;-75
2023/05/19 05:19:32;;;;;;;;;;;;;;;22.06;32.73;97796.38;5081983;28;1138;-75
2023/05/19 05:21:58;;;;;;;;;;;;;;;21.81;33.09;97797.97;5098975;28;1720;-75
2023/05/19 05:24:24;;;;;;;;;;;;;;;21.97;32.55;97799.09;5058406;28;1334;-74
2023/05/19 05:26:54;;;;;;;;;;;;;;;21.95;32.58;97801.56;5038044;28;1981;-75
2023/05/19 05:29:20;;;;;;;;;;;;;;;21.96;32.59;97808.81;5055138;28;1045;-75
2023/05/19 05:31:45;;;;;;;;;;;;;;;21.97;32.17;97804.78;5034671;28;1103;-74
2023/05/19 05:34:11;;;;;;;;;;;;;;;21.88;32.31;97813.13;5034686;28;1443;-75
2023/05/19 05:36:36;;;;;;;;;;;;;;;21.85;32.39;97818.44;5035042;28;1166;-75
2023/05/19 05:39:03;;;;;;;;;;;;;;;21.69;32.49;97812.88;5018704;28;1062;-75
2023/05/19 05:41:33;;;;;;;;;;;;;;;21.81;32.47;97829.13;5031302;28;958;-74
2023/05/19 05:44:03;;;;;;;;;;;;;;;21.78;32.15;97826.38;4999089;28;1111;-75
2023/05/19 05:46:29;;;;;;;;;;;;;;;21.63;32.67;97814.69;5015038;28;1176;-76
2023/05/19 05:48:54;;;;;;;;;;;;;;;21.91;31.98;97812.22;5014932;28;1971;-75
2023/05/19 05:51:20;;;;;;;;;;;;;;;21.98;31.97;97826.19;5014018;28;1110;-75
2023/05/19 05:53:47;;;;;;;;;;;;;;;21.58;32.95;97823.72;5014812;28;1319;-75
2023/05/19 05:56:14;;;;;;;;;;;;;;;21.69;32.48;97824.19;4998085;28;1404;-75
2023/05/19 05:58:48;;;;;;;;;;;;;;;21.83;32.28;97820.94;5031382;28;1234;-75
2023/05/19 06:01:15;;;;;;;;;;;;;;;21.96;32.12;97826.63;5051512;28;1166;-76
2023/05/19 06:03:43;;;;;;;;;;;;;;;21.95;32.03;97829.91;5051027;28;1451;-74
2023/05/19 06:06:09;;;;;;;;;;;;;;;21.67;32.49;97832.38;5017905;28;1316;-75
2023/05/19 06:08:35;;;;;;;;;;;;;;;21.72;32.46;97837.47;5057865;28;1910;-74
2023/05/19 06:11:08;;;;;;;;;;;;;;;21.62;32.49;97846.28;5094501;28;1253;-74
2023/05/19 06:13:34;;;;;;;;;;;;;;;21.71;32.25;97844.38;5061812;28;1098;-74
2023/05/19 06:16:01;;;;;;;;;;;;;;;21.59;32.68;97843.09;5053989;28;1606;-75
2023/05/19 06:18:31;;;;;;;;;;;;;;;21.79;32.24;97834.41;5021513;28;1159;-75
2023/05/19 06:20:57;;;;;;;;;;;;;;;21.94;31.99;97846.13;5037199;28;1228;-75
2023/05/19 06:23:23;;;;;;;;;;;;;;;21.61;32.53;97839.84;5037315;28;1164;-74
2023/05/19 06:25:49;;;;;;;;;;;;;;;21.67;32.28;97809.72;5013988;28;1211;-75
2023/05/19 06:28:15;;;;;;;;;;;;;;;21.89;31.90;97823.22;5014250;28;1914;-74
2023/05/19 06:30:40;;;;;;;;;;;;;;;22.01;31.92;97822.44;5014197;28;1135;-74
2023/05/19 06:33:17;;;;;;;;;;;;;;;22.09;31.67;97823.81;4997793;28;1140;-74
2023/05/19 06:35:43;;;;;;;;;;;;;;;22.03;31.98;97837.75;5013786;28;963;-74
2023/05/19 06:38:08;;;;;;;;;;;;;;;22.11;31.84;97827.00;4997726;28;1127;-74
2023/05/19 06:40:35;;;;;;;;;;;;;;;22.10;31.83;97836.72;5014138;28;1222;-74
2023/05/19 06:43:01;;;;;;;;;;;;;;;21.75;32.30;97850.72;4999226;28;1310;-75
2023/05/19 06:45:49;;;;;;;;;;;;;;;21.91;32.25;97851.88;4978861;28;1098;-75
2023/05/19 06:48:15;;;;;;;;;;;;;;;22.06;31.94;97853.81;5000836;28;1902;-74
2023/05/19 06:50:40;;;;;;;;;;;;;;;21.78;32.38;97860.38;5017801;28;1164;-76
2023/05/19 06:53:06;;;;;;;;;;;;;;;21.79;32.19;97854.25;4977929;28;1182;-74
2023/05/19 06:55:32;;;;;;;;;;;;;;;21.77;32.43;97853.91;4961767;28;1530;-74
2023/05/19 06:57:57;;;;;;;;;;;;;;;21.87;32.21;97868.22;5016072;28;1139;-76
2023/05/19 07:00:23;;;;;;;;;;;;;;;21.95;32.17;97858.22;5000567;28;1186;-75
2023/05/19 07:02:51;;;;;;;;;;;;;;;21.91;32.01;97863.22;5016858;28;1091;-74
2023/05/19 07:05:16;;;;;;;;;;;;;;;21.78;32.56;97872.47;5017081;28;1102;-75
2023/05/19 07:07:47;;;;;;;;;;;;;;;21.98;31.93;97875.13;5013959;28;1914;-74
2023/05/19 07:10:16;;;;;;;;;;;;;;;21.81;32.48;97874.44;5013198;28;1298;-75
2023/05/19 07:12:42;;;;;;;;;;;;;;;21.93;32.18;97867.19;4997303;28;1204;-75
2023/05/19 07:15:08;;;;;;;;;;;;;;;21.85;32.09;97872.25;4996727;28;1108;-75
2023/05/19 07:17:36;;;;;;;;;;;;;;;22.11;31.93;97878.00;5016429;28;1089;-75
2023/05/19 07:20:05;;;;;;;;;;;;;;;22.02;31.81;97875.00;5053009;28;1035;-76
2023/05/19 07:22:33;;;;;;;;;;;;;;;21.97;32.16;97872.75;5020494;28;1034;-75
2023/05/19 07:24:59;;;;;;;;;;;;;;;22.03;32.27;97870.94;5021233;28;1195;-74
2023/05/19 07:27:26;;;;;;;;;;;;;;;22.03;31.98;97882.28;5056502;28;1980;-74
2023/05/19 07:29:51;;;;;;;;;;;;;;;21.67;32.42;97877.66;5056371;28;1024;-75
2023/05/19 07:32:17;;;;;;;;;;;;;;;22.02;32.02;97892.00;5056402;28;1468;-74
2023/05/19 07:34:43;;;;;;;;;;;;;;;21.78;32.37;97889.47;5035970;28;986;-75
2023/05/19 07:37:08;;;;;;;;;;;;;;;21.99;32.10;97892.94;5036392;28;999;-75
2023/05/19 07:39:34;;;;;;;;;;;;;;;21.73;32.33;97884.38;5019752;28;1174;-75
2023/05/19 07:41:59;;;;;;;;;;;;;;;21.74;32.50;97894.44;5020015;28;1047;-75
2023/05/19 07:44:25;;;;;;;;;;;;;;;21.98;31.82;97886.47;5023664;28;1006;-75
2023/05/19 07:46:51;;;;;;;;;;;;;;;21.92;31.89;97893.94;5056199;28;1910;-75
2023/05/19 07:49:17;;;;;;;;;;;;;;;22.01;31.81;97890.41;5039716;28;1363;-75
2023/05/19 07:51:42;;;;;;;;;;;;;;;21.97;31.98;97886.94;5000979;28;1338;-75
2023/05/19 07:54:08;;;;;;;;;;;;;;;21.83;32.29;97903.09;4997154;28;922;-75
2023/05/19 07:56:33;;;;;;;;;;;;;;;21.89;31.90;97894.03;4997041;28;1232;-75
2023/05/19 07:58:59;;;;;;;;;;;;;;;21.90;32.08;97889.94;5013021;28;956;-75
2023/05/19 08:01:25;;;;;;;;;;;;;;;22.05;31.40;97888.28;4977392;28;1301;-76
2023/05/19 08:03:50;;;;;;;;;;;;;;;21.58;32.60;97886.81;4977286;28;976;-74
2023/05/19 08:06:16;;;;;;;;;;;;;;;21.85;31.78;97894.13;4977268;28;1159;-75
2023/05/19 08:08:41;;;;;;;;;;;;;;;22.00;31.62;97894.50;4977424;28;1977;-75
2023/05/19 08:11:07;;;;;;;;;;;;;;;21.80;31.81;97895.47;4962335;28;1315;-74
2023/05/19 08:13:33;;;;;;;;;;;;;;;21.52;32.08;97894.25;4965491;28;1139;-74
2023/05/19 08:15:59;;;;;;;;;;;;;;;21.61;31.77;97902.13;5016452;28;1362;-75
2023/05/19 08:18:24;;;;;;;;;;;;;;;21.70;31.60;97907.91;5000379;28;980;-75
2023/05/19 08:20:50;;;;;;;;;;;;;;;21.88;31.25;97892.44;5016713;28;904;-75
2023/05/19 08:23:16;;;;;;;;;;;;;;;21.80;31.20;97903.97;5060220;28;1189;-74
2023/05/19 08:25:42;;;;;;;;;;;;;;;21.76;31.25;97897.63;5076724;28;1028;-75
2023/05/19 08:28:07;;;;;;;;;;;;;;;21.80;31.23;97909.63;5042953;28;1907;-75
2023/05/19 08:30:33;;;;;;;;;;;;;;;21.59;31.51;97898.91;5039663;28;966;-75
2023/05/19 08:32:58;;;;;;;;;;;;;;;21.72;31.32;97908.28;5054313;28;1138;-75
2023/05/19 08:35:24;;;;;;;;;;;;;;;21.63;31.15;97908.13;5075647;28;1008;-75
2023/05/19 08:37:49;;;;;;;;;;;;;;;22.25;31.45;97905.91;5076195;28;988;-75
2023/05/19 08:40:16;;;;;;;;;;;;;;;22.43;31.54;97916.69;5062423;28;1135;-74
2023/05/19 08:42:42;;;;;;;;;;;;;;;22.41;32.36;97907.06;5079455;28;1019;-75
2023/05/19 08:45:07;;;;;;;;;;;;;;;22.61;32.91;97911.25;5062399;28;910;-76
2023/05/19 08:47:33;;;;;;;;;;;;;;;22.35;33.19;97916.13;5062637;28;1898;-75
2023/05/19 08:50:03;;;;;;;;;;;;;;;21.85;33.68;97917.59;5079006;28;1232;-75
2023/05/19 08:52:39;;;;;;;;;;;;;;;21.70;33.16;97912.78;5062820;28;1034;-75
2023/05/19 08:55:09;;;;;;;;;;;;;;;22.14;32.21;97904.66;5079368;28;984;-74
2023/05/19 08:57:35;;;;;;;;;;;;;;;21.87;32.47;97908.66;5079066;28;987;-75
2023/05/19 09:00:13;;;;;;;;;;;;;;;21.87;32.07;97897.31;5055225;28;962;-74
2023/05/19 09:02:38;;;;;;;;;;;;;;;21.76;31.88;97908.97;5039954;28;1090;-75
2023/05/19 09:05:04;;;;;;;;;;;;;;;21.70;31.69;97921.28;5038676;28;1056;-75
2023/05/19 09:07:30;;;;;;;;;;;;;;;21.60;31.72;97906.16;5074484;28;1981;-75
2023/05/19 09:09:55;;;;;;;;;;;;;;;21.68;31.60;97901.13;5042060;28;1060;-75
2023/05/19 09:12:21;;;;;;;;;;;;;;;21.45;31.62;97891.63;5058720;28;950;-75
2023/05/19 09:14:47;;;;;;;;;;;;;;;21.54;31.52;97902.31;5075017;28;1048;-75
2023/05/19 09:17:12;;;;;;;;;;;;;;;21.61;31.00;97904.94;5052635;28;1054;-75
2023/05/19 09:19:44;;;;;;;;;;;;;;;21.81;30.83;97910.44;5038575;28;937;-75
2023/05/19 09:22:09;;;;;;;;;;;;;;;21.62;30.81;97920.69;5071728;28;1003;-74
2023/05/19 09:24:36;;;;;;;;;;;;;;;21.77;30.58;97916.22;5038292;28;1006;-75
2023/05/19 09:27:02;;;;;;;;;;;;;;;21.58;30.82;97911.50;5054964;28;1977;-75
2023/05/19 09:29:27;;;;;;;;;;;;;;;21.55;30.85;97906.72;5038314;28;996;-74
2023/05/19 09:31:54;;;;;;;;;;;;;;;21.61;30.34;97907.78;5035406;28;1078;-74
2023/05/19 09:34:21;;;;;;;;;;;;;;;22.47;30.52;97905.25;5038390;28;1086;-75
2023/05/19 09:36:48;;;;;;;;;;;;;;;22.42;30.88;97911.47;5038773;28;1060;-75
2023/05/19 09:39:14;;;;;;;;;;;;;;;22.71;30.94;97895.16;5054816;28;977;-75
2023/05/19 09:41:40;;;;;;;;;;;;;;;22.58;31.15;97922.69;5038576;28;928;-75
2023/05/19 09:44:06;;;;;;;;;;;;;;;22.14;31.36;97911.13;5038093;28;965;-75
2023/05/19 09:46:33;;;;;;;;;;;;;;;22.16;31.22;97910.66;5038276;28;1251;-74
2023/05/19 09:48:59;;;;;;;;;;;;;;;21.64;32.02;97906.88;5038319;28;1918;-75
2023/05/19 09:51:24;;;;;;;;;;;;;;;21.87;31.17;97913.53;5038283;28;933;-75
2023/05/19 09:53:50;;;;;;;;;;;;;;;21.88;30.96;97917.94;5037888;28;889;-75
2023/05/19 09:56:16;;;;;;;;;;;;;;;21.65;31.50;97914.13;5038149;28;971;-75
2023/05/19 09:58:41;;;;;;;;;;;;;;;21.93;30.81;97920.22;5037879;28;983;-75
2023/05/19 10:01:07;;;;;;;;;;;;;;;21.83;30.78;97916.47;5021481;28;1441;-75
2023/05/19 10:03:33;;;;;;;;;;;;;;;21.59;31.03;97921.56;5066484;28;918;-75
2023/05/19 10:05:59;;;;;;;;;;;;;;;21.72;30.62;97913.13;5075406;28;1022;-74
2023/05/19 10:08:26;;;;;;;;;;;;;;;21.71;30.48;97909.50;5075947;28;1983;-75
2023/05/19 10:10:51;;;;;;;;;;;;;;;21.69;30.40;97920.47;5076684;28;928;-75
2023/05/19 10:13:17;;;;;;;;;;;;;;;21.60;30.41;97914.66;5075529;28;1185;-75
2023/05/19 10:15:44;;;;;;;;;;;;;;;21.72;30.43;97919.59;5072102;28;1797;-74
2023/05/19 10:18:10;;;;;;;;;;;;;;;21.51;30.50;97909.66;5088661;28;933;-74
2023/05/19 10:20:36;;;;;;;;;;;;;;;21.40;30.62;97914.84;5072146;28;889;-75
2023/05/19 10:23:02;;;;;;;;;;;;;;;21.46;30.60;97912.25;5055312;28;918;-75
2023/05/19 10:25:29;;;;;;;;;;;;;;;21.42;30.70;97912.34;5077122;28;1068;-75
2023/05/19 10:28:04;;;;;;;;;;;;;;;21.66;30.25;97915.72;5060533;28;1913;-74
2023/05/19 10:30:39;;;;;;;;;;;;;;;21.53;30.25;97900.72;5060480;28;913;-75
2023/05/19 10:33:06;;;;;;;;;;;;;;;21.78;30.05;97909.31;5060336;28;1138;-75
2023/05/19 10:35:50;;;;;;;;;;;;;;;21.67;30.12;97908.81;5036867;28;971;-75
2023/05/19 10:38:24;;;;;;;;;;;;;;;21.44;30.30;97909.06;5037174;28;1196;-75
2023/05/19 10:40:59;;;;;;;;;;;;;;;21.33;30.38;97921.47;5037168;28;1241;-75
2023/05/19 10:43:44;;;;;;;;;;;;;;;21.42;30.24;97920.03;5053546;28;938;-75
2023/05/19 10:46:10;;;;;;;;;;;;;;;22.21;30.20;97915.75;5020650;28;1229;-75
2023/05/19 10:48:35;;;;;;;;;;;;;;;22.23;30.90;97918.97;5053493;28;1918;-75
2023/05/19 10:51:01;;;;;;;;;;;;;;;22.27;31.29;97917.59;5020455;28;977;-75
2023/05/19 10:53:30;;;;;;;;;;;;;;;22.29;30.83;97911.47;5020277;28;1028;-75
2023/05/19 10:55:57;;;;;;;;;;;;;;;21.81;31.49;97916.09;5031401;28;1033;-75
2023/05/19 10:58:42;;;;;;;;;;;;;;;21.88;31.34;97920.78;5017461;28;945;-74
2023/05/19 11:01:08;;;;;;;;;;;;;;;21.28;31.88;97924.78;5033231;28;957;-75
2023/05/19 11:03:51;;;;;;;;;;;;;;;21.48;31.22;97909.75;5017385;28;1001;-74
2023/05/19 11:06:17;;;;;;;;;;;;;;;21.25;31.64;97919.25;5009016;28;1015;-74
2023/05/19 11:08:42;;;;;;;;;;;;;;;21.63;30.66;97922.28;5049824;28;1914;-75
2023/05/19 11:11:15;;;;;;;;;;;;;;;21.61;31.00;97916.28;5000793;28;1509;-74
2023/05/19 11:13:42;;;;;;;;;;;;;;;21.57;30.85;97916.38;5004326;28;1242;-75
2023/05/19 11:16:08;;;;;;;;;;;;;;;21.83;30.51;97911.59;5070348;28;1050;-74
2023/05/19 11:18:34;;;;;;;;;;;;;;;21.60;30.79;97917.50;5053113;28;1185;-75
2023/05/19 11:21:00;;;;;;;;;;;;;;;21.50;30.72;97925.06;5053354;28;916;-75
2023/05/19 11:23:26;;;;;;;;;;;;;;;21.40;30.95;97919.66;5053026;28;1473;-74
2023/05/19 11:25:55;;;;;;;;;;;;;;;21.58;30.51;97922.81;5069779;28;1013;-75
2023/05/19 11:28:24;;;;;;;;;;;;;;;21.75;29.93;97915.84;5069359;28;1910;-74
2023/05/19 11:30:50;;;;;;;;;;;;;;;21.53;30.11;97912.03;5069380;28;998;-75
2023/05/19 11:33:18;;;;;;;;;;;;;;;21.49;30.21;97912.13;5049296;28;944;-75
2023/05/19 11:35:44;;;;;;;;;;;;;;;21.71;30.03;97917.19;5033452;28;976;-75
2023/05/19 11:38:10;;;;;;;;;;;;;;;21.31;30.58;97923.16;5016715;28;1210;-74
2023/05/19 11:40:35;;;;;;;;;;;;;;;22.03;30.13;97910.63;5016914;28;975;-75
2023/05/19 11:43:01;;;;;;;;;;;;;;;22.47;29.68;97916.59;5016635;28;993;-75
2023/05/19 11:45:26;;;;;;;;;;;;;;;22.59;29.98;97910.94;5037807;28;973;-75
2023/05/19 11:47:54;;;;;;;;;;;;;;;22.42;30.42;97909.44;5053284;28;1922;-74
2023/05/19 11:50:19;;;;;;;;;;;;;;;22.14;30.66;97911.13;5056752;28;1031;-75
2023/05/19 11:52:46;;;;;;;;;;;;;;;22.27;30.15;97906.25;5040114;28;940;-75
2023/05/19 11:55:15;;;;;;;;;;;;;;;21.79;30.86;97910.88;5040221;28;1114;-74
2023/05/19 11:57:40;;;;;;;;;;;;;;;21.95;30.32;97901.53;5023696;28;1235;-75
2023/05/19 12:00:06;;;;;;;;;;;;;;;21.60;31.18;97894.84;5056927;28;1039;-75
2023/05/19 12:02:32;;;;;;;;;;;;;;;21.55;31.10;97901.88;5056890;28;931;-74
2023/05/19 12:04:57;;;;;;;;;;;;;;;21.57;30.54;97901.41;5040942;28;971;-74
2023/05/19 12:07:23;;;;;;;;;;;;;;;21.50;30.50;97893.09;5091657;28;1971;-75
2023/05/19 12:09:49;;;;;;;;;;;;;;;21.46;30.87;97895.25;5074073;28;963;-75
2023/05/19 12:12:15;;;;;;;;;;;;;;;21.35;31.00;97894.75;5058950;28;936;-75
2023/05/19 12:14:41;;;;;;;;;;;;;;;22.24;30.03;97904.34;5090950;28;1179;-74
2023/05/19 12:17:11;;;;;;;;;;;;;;;22.62;29.49;97883.69;5091160;28;988;-74
2023/05/19 12:19:36;;;;;;;;;;;;;;;22.44;29.90;97900.50;5074080;28;891;-74
2023/05/19 12:22:02;;;;;;;;;;;;;;;21.96;30.47;97893.81;5091302;28;940;-75
2023/05/19 12:24:28;;;;;;;;;;;;;;;21.66;30.88;97895.91;5074068;28;1871;-75
2023/05/19 12:27:03;;;;;;;;;;;;;;;21.61;30.80;97902.13;5074200;28;1397;-75
2023/05/19 12:29:30;;;;;;;;;;;;;;;21.79;30.80;97890.28;5091084;28;926;-75
2023/05/19 12:31:55;;;;;;;;;;;;;;;21.89;30.45;97894.03;5073939;28;1188;-74
2023/05/19 12:34:21;;;;;;;;;;;;;;;21.56;30.88;97894.16;5074235;28;931;-75
2023/05/19 12:36:47;;;;;;;;;;;;;;;21.97;29.92;97895.44;5073668;28;1204;-75
2023/05/19 12:39:13;;;;;;;;;;;;;;;21.65;30.44;97885.81;5090870;28;956;-74
2023/05/19 12:41:38;;;;;;;;;;;;;;;21.74;30.08;97893.66;5070404;28;1292;-74
2023/05/19 12:44:12;;;;;;;;;;;;;;;21.72;30.08;97894.09;5076905;28;1224;-74
2023/05/19 12:46:39;;;;;;;;;;;;;;;21.52;30.57;97894.25;5100633;28;1196;-75
2023/05/19 12:49:04;;;;;;;;;;;;;;;21.43;30.68;97894.09;5077973;28;1933;-74
2023/05/19 12:51:30;;;;;;;;;;;;;;;21.45;30.32;97899.31;5077094;28;936;-75
2023/05/19 12:53:55;;;;;;;;;;;;;;;22.18;29.87;97902.53;5078771;28;875;-75
2023/05/19 12:56:23;;;;;;;;;;;;;;;22.47;29.53;97905.25;5076976;28;876;-75
2023/05/19 12:58:52;;;;;;;;;;;;;;;22.14;29.94;97899.00;5076841;28;1058;-75